sensor_id;sensor_type;location;lat;lon;timestamp;temperature;humidity
10891;DHT22;5498;50.928;11.598;2022-10-16T00:02:01;17.10;91.20
10891;DHT22;5498;50.928;11.598;2022-10-16T00:05:03;17.10;91.00
10891;DHT22;5498;50.928;11.598;2022-10-16T00:08:06;17.10;91.00
10891;DHT22;5498;50.928;11.598;2022-10-16T00:11:11;17.20;90.90
10891;DHT22;5498;50.928;11.598;2022-10-16T00:14:15;17.20;90.80
10891;DHT22;5498;50.928;11.598;2022-10-16T00:17:17;17.20;90.80
10891;DHT22;5498;50.928;11.598;2022-10-16T00:20:19;17.10;90.90
10891;DHT22;5498;50.928;11.598;2022-10-16T00:23:21;17.30;91.00
10891;DHT22;5498;50.928;11.598;2022-10-16T00:26:26;17.30;91.10
10891;DHT22;5498;50.928;11.598;2022-10-16T00:29:28;17.40;91.10
10891;DHT22;5498;50.928;11.598;2022-10-16T00:32:30;17.10;91.00
10891;DHT22;5498;50.928;11.598;2022-10-16T00:35:32;17.10;91.00
10891;DHT22;5498;50.928;11.598;2022-10-16T00:38:34;17.10;90.90
10891;DHT22;5498;50.928;11.598;2022-10-16T00:41:39;17.00;91.00
10891;DHT22;5498;50.928;11.598;2022-10-16T00:44:47;16.90;91.00
10891;DHT22;5498;50.928;11.598;2022-10-16T00:47:54;16.80;91.30
10891;DHT22;5498;50.928;11.598;2022-10-16T00:50:58;16.70;91.70
10891;DHT22;5498;50.928;11.598;2022-10-16T00:54:00;16.60;91.60
10891;DHT22;5498;50.928;11.598;2022-10-16T00:57:06;16.60;91.60
10891;DHT22;5498;50.928;11.598;2022-10-16T01:00:12;16.60;91.60
10891;DHT22;5498;50.928;11.598;2022-10-16T01:03:25;16.50;91.60
10891;DHT22;5498;50.928;11.598;2022-10-16T01:06:35;16.40;91.70
10891;DHT22;5498;50.928;11.598;2022-10-16T01:09:47;16.40;91.80
10891;DHT22;5498;50.928;11.598;2022-10-16T01:12:59;16.50;92.00
10891;DHT22;5498;50.928;11.598;2022-10-16T01:16:06;16.30;92.00
10891;DHT22;5498;50.928;11.598;2022-10-16T01:19:15;16.30;92.20
10891;DHT22;5498;50.928;11.598;2022-10-16T01:22:23;16.30;92.20
10891;DHT22;5498;50.928;11.598;2022-10-16T01:25:36;16.20;92.30
10891;DHT22;5498;50.928;11.598;2022-10-16T01:28:51;16.20;92.40
10891;DHT22;5498;50.928;11.598;2022-10-16T01:31:58;16.10;92.30
10891;DHT22;5498;50.928;11.598;2022-10-16T01:35:04;16.20;92.40
10891;DHT22;5498;50.928;11.598;2022-10-16T01:38:14;15.90;92.40
10891;DHT22;5498;50.928;11.598;2022-10-16T01:41:20;15.90;92.50
10891;DHT22;5498;50.928;11.598;2022-10-16T01:44:29;15.90;92.50
10891;DHT22;5498;50.928;11.598;2022-10-16T01:47:33;15.80;92.50
10891;DHT22;5498;50.928;11.598;2022-10-16T01:50:39;15.80;92.50
10891;DHT22;5498;50.928;11.598;2022-10-16T01:53:46;15.80;92.50
10891;DHT22;5498;50.928;11.598;2022-10-16T01:56:51;15.70;92.70
10891;DHT22;5498;50.928;11.598;2022-10-16T02:00:00;15.70;92.80
10891;DHT22;5498;50.928;11.598;2022-10-16T02:03:07;15.70;92.80
10891;DHT22;5498;50.928;11.598;2022-10-16T02:06:10;15.70;92.80
10891;DHT22;5498;50.928;11.598;2022-10-16T02:09:13;15.70;92.90
10891;DHT22;5498;50.928;11.598;2022-10-16T02:12:22;15.70;92.90
10891;DHT22;5498;50.928;11.598;2022-10-16T02:15:29;15.60;93.00
10891;DHT22;5498;50.928;11.598;2022-10-16T02:18:31;15.60;92.90
10891;DHT22;5498;50.928;11.598;2022-10-16T02:21:41;15.60;93.00
10891;DHT22;5498;50.928;11.598;2022-10-16T02:24:50;15.60;93.10
10891;DHT22;5498;50.928;11.598;2022-10-16T02:27:57;15.50;93.20
10891;DHT22;5498;50.928;11.598;2022-10-16T02:31:04;15.50;93.20
10891;DHT22;5498;50.928;11.598;2022-10-16T02:34:10;15.50;93.20
10891;DHT22;5498;50.928;11.598;2022-10-16T02:37:14;15.50;93.20
10891;DHT22;5498;50.928;11.598;2022-10-16T02:40:18;15.50;93.20
10891;DHT22;5498;50.928;11.598;2022-10-16T02:43:20;15.40;93.10
10891;DHT22;5498;50.928;11.598;2022-10-16T02:46:23;15.70;93.10
10891;DHT22;5498;50.928;11.598;2022-10-16T02:49:25;15.30;93.10
10891;DHT22;5498;50.928;11.598;2022-10-16T02:52:27;15.30;93.20
10891;DHT22;5498;50.928;11.598;2022-10-16T02:55:29;15.20;93.10
10891;DHT22;5498;50.928;11.598;2022-10-16T02:58:31;15.10;93.40
10891;DHT22;5498;50.928;11.598;2022-10-16T03:01:35;14.90;93.80
10891;DHT22;5498;50.928;11.598;2022-10-16T03:04:38;14.90;93.90
10891;DHT22;5498;50.928;11.598;2022-10-16T03:07:40;15.00;93.90
10891;DHT22;5498;50.928;11.598;2022-10-16T03:10:42;15.00;93.80
10891;DHT22;5498;50.928;11.598;2022-10-16T03:13:44;14.90;93.60
10891;DHT22;5498;50.928;11.598;2022-10-16T03:16:47;15.00;93.70
10891;DHT22;5498;50.928;11.598;2022-10-16T03:19:49;15.00;93.80
10891;DHT22;5498;50.928;11.598;2022-10-16T03:22:51;15.00;93.70
10891;DHT22;5498;50.928;11.598;2022-10-16T03:25:53;15.00;93.70
10891;DHT22;5498;50.928;11.598;2022-10-16T03:28:55;15.00;93.70
10891;DHT22;5498;50.928;11.598;2022-10-16T03:31:59;15.30;93.80
10891;DHT22;5498;50.928;11.598;2022-10-16T03:35:01;15.00;93.80
10891;DHT22;5498;50.928;11.598;2022-10-16T03:38:03;15.00;93.70
10891;DHT22;5498;50.928;11.598;2022-10-16T03:41:05;15.30;93.70
10891;DHT22;5498;50.928;11.598;2022-10-16T03:44:08;14.90;93.60
10891;DHT22;5498;50.928;11.598;2022-10-16T03:47:11;15.30;93.80
10891;DHT22;5498;50.928;11.598;2022-10-16T03:50:14;14.90;93.60
10891;DHT22;5498;50.928;11.598;2022-10-16T03:53:16;14.90;93.90
10891;DHT22;5498;50.928;11.598;2022-10-16T03:56:18;14.90;93.80
10891;DHT22;5498;50.928;11.598;2022-10-16T03:59:20;14.80;93.80
10891;DHT22;5498;50.928;11.598;2022-10-16T04:02:23;14.80;93.70
10891;DHT22;5498;50.928;11.598;2022-10-16T04:05:25;14.80;93.90
10891;DHT22;5498;50.928;11.598;2022-10-16T04:08:27;14.80;94.00
10891;DHT22;5498;50.928;11.598;2022-10-16T04:11:29;14.80;93.90
10891;DHT22;5498;50.928;11.598;2022-10-16T04:14:31;14.80;93.90
10891;DHT22;5498;50.928;11.598;2022-10-16T04:17:34;14.70;93.80
10891;DHT22;5498;50.928;11.598;2022-10-16T04:20:36;14.70;93.80
10891;DHT22;5498;50.928;11.598;2022-10-16T04:23:38;14.70;93.90
10891;DHT22;5498;50.928;11.598;2022-10-16T04:26:41;14.70;93.80
10891;DHT22;5498;50.928;11.598;2022-10-16T04:29:43;14.70;93.80
10891;DHT22;5498;50.928;11.598;2022-10-16T04:32:49;14.70;94.00
10891;DHT22;5498;50.928;11.598;2022-10-16T04:35:56;14.70;94.20
10891;DHT22;5498;50.928;11.598;2022-10-16T04:38:58;14.70;94.10
10891;DHT22;5498;50.928;11.598;2022-10-16T04:42:00;14.70;94.00
10891;DHT22;5498;50.928;11.598;2022-10-16T04:45:03;14.70;93.90
10891;DHT22;5498;50.928;11.598;2022-10-16T04:48:08;14.70;94.10
10891;DHT22;5498;50.928;11.598;2022-10-16T04:51:10;14.70;94.00
10891;DHT22;5498;50.928;11.598;2022-10-16T04:54:12;14.80;94.00
10891;DHT22;5498;50.928;11.598;2022-10-16T04:57:14;14.80;94.00
10891;DHT22;5498;50.928;11.598;2022-10-16T05:00:17;14.90;94.10
10891;DHT22;5498;50.928;11.598;2022-10-16T05:03:20;14.90;94.20
10891;DHT22;5498;50.928;11.598;2022-10-16T05:06:22;14.90;94.40
10891;DHT22;5498;50.928;11.598;2022-10-16T05:09:25;15.00;94.10
10891;DHT22;5498;50.928;11.598;2022-10-16T05:12:27;14.90;94.20
10891;DHT22;5498;50.928;11.598;2022-10-16T05:15:29;14.90;94.20
10891;DHT22;5498;50.928;11.598;2022-10-16T05:18:32;14.90;94.20
10891;DHT22;5498;50.928;11.598;2022-10-16T05:21:34;14.90;94.00
10891;DHT22;5498;50.928;11.598;2022-10-16T05:24:36;15.30;94.10
10891;DHT22;5498;50.928;11.598;2022-10-16T05:27:38;15.00;94.10
10891;DHT22;5498;50.928;11.598;2022-10-16T05:30:40;15.00;94.10
10891;DHT22;5498;50.928;11.598;2022-10-16T05:33:45;15.00;93.90
10891;DHT22;5498;50.928;11.598;2022-10-16T05:36:47;15.00;93.90
10891;DHT22;5498;50.928;11.598;2022-10-16T05:39:49;15.00;94.00
10891;DHT22;5498;50.928;11.598;2022-10-16T05:42:55;15.00;94.00
10891;DHT22;5498;50.928;11.598;2022-10-16T05:45:58;15.00;94.20
10891;DHT22;5498;50.928;11.598;2022-10-16T05:49:02;15.00;94.20
10891;DHT22;5498;50.928;11.598;2022-10-16T05:52:05;15.00;94.00
10891;DHT22;5498;50.928;11.598;2022-10-16T05:55:07;15.00;94.10
10891;DHT22;5498;50.928;11.598;2022-10-16T05:58:10;15.00;94.10
10891;DHT22;5498;50.928;11.598;2022-10-16T06:01:13;15.00;93.90
10891;DHT22;5498;50.928;11.598;2022-10-16T06:04:18;15.00;94.10
10891;DHT22;5498;50.928;11.598;2022-10-16T06:07:20;15.00;94.00
10891;DHT22;5498;50.928;11.598;2022-10-16T06:10:23;15.00;94.20
10891;DHT22;5498;50.928;11.598;2022-10-16T06:13:25;15.00;94.10
10891;DHT22;5498;50.928;11.598;2022-10-16T06:16:27;15.50;94.20
10891;DHT22;5498;50.928;11.598;2022-10-16T06:19:31;15.60;94.40
10891;DHT22;5498;50.928;11.598;2022-10-16T06:22:33;15.10;94.20
10891;DHT22;5498;50.928;11.598;2022-10-16T06:25:35;15.20;94.20
10891;DHT22;5498;50.928;11.598;2022-10-16T06:28:39;15.20;94.30
10891;DHT22;5498;50.928;11.598;2022-10-16T06:31:41;15.30;93.80
10891;DHT22;5498;50.928;11.598;2022-10-16T06:34:45;15.30;94.20
10891;DHT22;5498;50.928;11.598;2022-10-16T06:37:47;15.40;94.20
10891;DHT22;5498;50.928;11.598;2022-10-16T06:40:49;15.40;94.30
10891;DHT22;5498;50.928;11.598;2022-10-16T06:43:51;15.40;94.40
10891;DHT22;5498;50.928;11.598;2022-10-16T06:46:53;15.80;94.60
10891;DHT22;5498;50.928;11.598;2022-10-16T06:49:57;15.50;94.40
10891;DHT22;5498;50.928;11.598;2022-10-16T06:52:59;15.60;94.40
10891;DHT22;5498;50.928;11.598;2022-10-16T06:56:07;15.60;94.30
10891;DHT22;5498;50.928;11.598;2022-10-16T06:59:10;16.00;94.60
10891;DHT22;5498;50.928;11.598;2022-10-16T07:02:12;16.00;94.20
10891;DHT22;5498;50.928;11.598;2022-10-16T07:05:16;15.80;94.30
10891;DHT22;5498;50.928;11.598;2022-10-16T07:08:18;15.90;94.20
10891;DHT22;5498;50.928;11.598;2022-10-16T07:11:22;16.20;94.20
10891;DHT22;5498;50.928;11.598;2022-10-16T07:14:25;16.50;94.40
10891;DHT22;5498;50.928;11.598;2022-10-16T07:17:27;16.40;93.90
10891;DHT22;5498;50.928;11.598;2022-10-16T07:20:30;16.30;93.70
10891;DHT22;5498;50.928;11.598;2022-10-16T07:23:33;16.50;93.40
10891;DHT22;5498;50.928;11.598;2022-10-16T07:26:36;16.50;93.10
10891;DHT22;5498;50.928;11.598;2022-10-16T07:29:39;16.60;93.10
10891;DHT22;5498;50.928;11.598;2022-10-16T07:32:42;16.70;93.10
10891;DHT22;5498;50.928;11.598;2022-10-16T07:35:50;17.30;93.10
10891;DHT22;5498;50.928;11.598;2022-10-16T07:38:53;17.00;93.00
10891;DHT22;5498;50.928;11.598;2022-10-16T07:41:55;17.10;92.40
10891;DHT22;5498;50.928;11.598;2022-10-16T07:44:57;17.60;92.20
10891;DHT22;5498;50.928;11.598;2022-10-16T07:47:59;17.20;92.20
10891;DHT22;5498;50.928;11.598;2022-10-16T07:51:05;17.30;91.90
10891;DHT22;5498;50.928;11.598;2022-10-16T07:54:08;17.60;91.90
10891;DHT22;5498;50.928;11.598;2022-10-16T07:57:10;17.40;91.80
10891;DHT22;5498;50.928;11.598;2022-10-16T08:00:13;17.40;91.50
10891;DHT22;5498;50.928;11.598;2022-10-16T08:03:15;17.50;91.60
10891;DHT22;5498;50.928;11.598;2022-10-16T08:06:20;17.60;91.20
10891;DHT22;5498;50.928;11.598;2022-10-16T08:09:22;17.90;91.40
10891;DHT22;5498;50.928;11.598;2022-10-16T08:12:25;17.60;91.00
10891;DHT22;5498;50.928;11.598;2022-10-16T08:15:27;17.90;91.00
10891;DHT22;5498;50.928;11.598;2022-10-16T08:18:28;17.60;91.00
10891;DHT22;5498;50.928;11.598;2022-10-16T08:21:32;17.70;90.90
10891;DHT22;5498;50.928;11.598;2022-10-16T08:24:34;17.70;91.10
10891;DHT22;5498;50.928;11.598;2022-10-16T08:27:37;17.70;91.00
10891;DHT22;5498;50.928;11.598;2022-10-16T08:30:40;17.80;91.00
10891;DHT22;5498;50.928;11.598;2022-10-16T08:33:43;17.80;90.70
10891;DHT22;5498;50.928;11.598;2022-10-16T08:36:48;17.80;91.00
10891;DHT22;5498;50.928;11.598;2022-10-16T08:39:50;17.80;90.60
10891;DHT22;5498;50.928;11.598;2022-10-16T08:43:09;18.20;90.90
10891;DHT22;5498;50.928;11.598;2022-10-16T08:46:34;17.90;91.10
10891;DHT22;5498;50.928;11.598;2022-10-16T08:49:46;17.90;91.10
10891;DHT22;5498;50.928;11.598;2022-10-16T08:52:57;17.90;91.10
10891;DHT22;5498;50.928;11.598;2022-10-16T08:55:59;17.90;91.20
10891;DHT22;5498;50.928;11.598;2022-10-16T08:59:04;18.00;91.10
10891;DHT22;5498;50.928;11.598;2022-10-16T09:02:24;18.00;91.30
10891;DHT22;5498;50.928;11.598;2022-10-16T09:05:46;18.60;91.50
10891;DHT22;5498;50.928;11.598;2022-10-16T09:09:21;18.20;91.30
10891;DHT22;5498;50.928;11.598;2022-10-16T09:12:39;18.60;91.30
10891;DHT22;5498;50.928;11.598;2022-10-16T09:15:49;18.90;91.20
10891;DHT22;5498;50.928;11.598;2022-10-16T09:19:02;18.60;90.90
10891;DHT22;5498;50.928;11.598;2022-10-16T09:22:15;18.70;91.10
10891;DHT22;5498;50.928;11.598;2022-10-16T09:25:21;19.30;90.80
10891;DHT22;5498;50.928;11.598;2022-10-16T09:28:24;19.10;90.70
10891;DHT22;5498;50.928;11.598;2022-10-16T09:31:26;19.10;90.50
10891;DHT22;5498;50.928;11.598;2022-10-16T09:34:30;19.60;90.50
10891;DHT22;5498;50.928;11.598;2022-10-16T09:37:34;19.20;90.40
10891;DHT22;5498;50.928;11.598;2022-10-16T09:44:37;19.30;90.10
10891;DHT22;5498;50.928;11.598;2022-10-16T09:47:46;19.00;90.40
10891;DHT22;5498;50.928;11.598;2022-10-16T09:50:56;19.50;90.10
10891;DHT22;5498;50.928;11.598;2022-10-16T09:54:00;19.50;90.00
10891;DHT22;5498;50.928;11.598;2022-10-16T09:57:12;19.60;89.30
10891;DHT22;5498;50.928;11.598;2022-10-16T10:00:16;19.60;88.50
10891;DHT22;5498;50.928;11.598;2022-10-16T10:03:36;19.60;88.60
10891;DHT22;5498;50.928;11.598;2022-10-16T10:06:42;19.70;88.80
10891;DHT22;5498;50.928;11.598;2022-10-16T10:09:47;19.70;88.20
10891;DHT22;5498;50.928;11.598;2022-10-16T10:12:52;20.00;87.40
10891;DHT22;5498;50.928;11.598;2022-10-16T10:15:54;19.70;89.00
10891;DHT22;5498;50.928;11.598;2022-10-16T10:18:58;20.10;86.40
10891;DHT22;5498;50.928;11.598;2022-10-16T10:22:00;20.10;88.10
10891;DHT22;5498;50.928;11.598;2022-10-16T10:25:19;20.20;87.60
10891;DHT22;5498;50.928;11.598;2022-10-16T10:28:47;19.80;88.00
10891;DHT22;5498;50.928;11.598;2022-10-16T10:32:00;19.90;88.10
10891;DHT22;5498;50.928;11.598;2022-10-16T10:35:22;20.20;88.10
10891;DHT22;5498;50.928;11.598;2022-10-16T10:38:38;20.10;87.90
10891;DHT22;5498;50.928;11.598;2022-10-16T10:42:08;20.20;87.40
10891;DHT22;5498;50.928;11.598;2022-10-16T10:45:24;20.40;87.50
10891;DHT22;5498;50.928;11.598;2022-10-16T10:48:46;20.50;85.80
10891;DHT22;5498;50.928;11.598;2022-10-16T10:51:58;20.60;85.70
10891;DHT22;5498;50.928;11.598;2022-10-16T10:55:14;20.60;85.50
10891;DHT22;5498;50.928;11.598;2022-10-16T10:58:44;20.60;85.20
10891;DHT22;5498;50.928;11.598;2022-10-16T11:02:18;20.60;85.00
10891;DHT22;5498;50.928;11.598;2022-10-16T11:05:36;20.70;85.00
10891;DHT22;5498;50.928;11.598;2022-10-16T11:08:46;20.60;83.70
10891;DHT22;5498;50.928;11.598;2022-10-16T11:11:54;20.60;83.60
10891;DHT22;5498;50.928;11.598;2022-10-16T11:15:02;20.50;83.50
10891;DHT22;5498;50.928;11.598;2022-10-16T11:18:11;20.40;83.70
10891;DHT22;5498;50.928;11.598;2022-10-16T11:21:29;20.50;83.80
10891;DHT22;5498;50.928;11.598;2022-10-16T11:24:39;20.60;83.90
10891;DHT22;5498;50.928;11.598;2022-10-16T11:27:49;20.40;83.70
10891;DHT22;5498;50.928;11.598;2022-10-16T11:30:57;20.80;84.30
10891;DHT22;5498;50.928;11.598;2022-10-16T11:34:08;20.30;83.90
10891;DHT22;5498;50.928;11.598;2022-10-16T11:37:19;20.70;84.20
10891;DHT22;5498;50.928;11.598;2022-10-16T11:40:29;20.40;84.10
10891;DHT22;5498;50.928;11.598;2022-10-16T11:43:38;20.50;84.20
10891;DHT22;5498;50.928;11.598;2022-10-16T11:46:48;20.80;84.20
10891;DHT22;5498;50.928;11.598;2022-10-16T11:49:58;20.50;84.00
10891;DHT22;5498;50.928;11.598;2022-10-16T11:53:07;20.80;83.90
10891;DHT22;5498;50.928;11.598;2022-10-16T11:56:20;20.60;83.10
10891;DHT22;5498;50.928;11.598;2022-10-16T11:59:29;20.60;83.30
10891;DHT22;5498;50.928;11.598;2022-10-16T12:02:44;20.70;83.50
10891;DHT22;5498;50.928;11.598;2022-10-16T12:06:06;20.70;83.20
10891;DHT22;5498;50.928;11.598;2022-10-16T12:09:20;20.80;83.20
10891;DHT22;5498;50.928;11.598;2022-10-16T12:12:25;21.10;82.80
10891;DHT22;5498;50.928;11.598;2022-10-16T12:15:30;20.80;82.40
10891;DHT22;5498;50.928;11.598;2022-10-16T12:18:33;20.90;82.90
10891;DHT22;5498;50.928;11.598;2022-10-16T12:21:36;21.10;82.60
10891;DHT22;5498;50.928;11.598;2022-10-16T12:24:51;21.20;82.60
10891;DHT22;5498;50.928;11.598;2022-10-16T12:28:06;20.90;81.80
10891;DHT22;5498;50.928;11.598;2022-10-16T12:31:18;21.30;83.00
10891;DHT22;5498;50.928;11.598;2022-10-16T12:34:25;21.40;82.50
10891;DHT22;5498;50.928;11.598;2022-10-16T12:37:33;21.20;81.60
10891;DHT22;5498;50.928;11.598;2022-10-16T12:40:37;21.30;81.90
10891;DHT22;5498;50.928;11.598;2022-10-16T12:43:42;21.40;81.90
10891;DHT22;5498;50.928;11.598;2022-10-16T12:46:46;21.40;82.10
10891;DHT22;5498;50.928;11.598;2022-10-16T12:50:25;21.40;80.90
10891;DHT22;5498;50.928;11.598;2022-10-16T12:53:38;21.40;80.70
10891;DHT22;5498;50.928;11.598;2022-10-16T12:56:51;21.40;79.20
10891;DHT22;5498;50.928;11.598;2022-10-16T13:00:12;21.30;80.60
10891;DHT22;5498;50.928;11.598;2022-10-16T13:03:43;21.60;81.00
10891;DHT22;5498;50.928;11.598;2022-10-16T13:06:54;21.30;80.80
10891;DHT22;5498;50.928;11.598;2022-10-16T13:10:11;21.30;80.80
10891;DHT22;5498;50.928;11.598;2022-10-16T13:17:07;21.20;81.30
10891;DHT22;5498;50.928;11.598;2022-10-16T13:20:17;21.50;81.30
10891;DHT22;5498;50.928;11.598;2022-10-16T13:23:28;21.30;81.30
10891;DHT22;5498;50.928;11.598;2022-10-16T13:26:41;21.30;80.90
10891;DHT22;5498;50.928;11.598;2022-10-16T13:29:53;21.50;80.50
10891;DHT22;5498;50.928;11.598;2022-10-16T13:33:01;21.30;79.90
10891;DHT22;5498;50.928;11.598;2022-10-16T13:36:21;21.80;80.10
10891;DHT22;5498;50.928;11.598;2022-10-16T13:39:26;21.40;79.70
10891;DHT22;5498;50.928;11.598;2022-10-16T13:42:30;21.80;79.90
10891;DHT22;5498;50.928;11.598;2022-10-16T13:45:32;21.90;79.90
10891;DHT22;5498;50.928;11.598;2022-10-16T13:48:34;21.60;79.00
10891;DHT22;5498;50.928;11.598;2022-10-16T13:51:36;21.60;78.20
10891;DHT22;5498;50.928;11.598;2022-10-16T13:54:38;21.60;77.50
10891;DHT22;5498;50.928;11.598;2022-10-16T13:57:43;21.50;77.80
10891;DHT22;5498;50.928;11.598;2022-10-16T14:00:55;21.50;77.90
10891;DHT22;5498;50.928;11.598;2022-10-16T14:04:02;21.90;77.90
10891;DHT22;5498;50.928;11.598;2022-10-16T14:07:13;21.50;77.70
10891;DHT22;5498;50.928;11.598;2022-10-16T14:10:23;21.50;77.80
10891;DHT22;5498;50.928;11.598;2022-10-16T14:13:36;21.60;77.80
10891;DHT22;5498;50.928;11.598;2022-10-16T14:16:41;21.60;77.80
10891;DHT22;5498;50.928;11.598;2022-10-16T14:19:46;21.70;77.70
10891;DHT22;5498;50.928;11.598;2022-10-16T14:22:58;21.70;77.80
10891;DHT22;5498;50.928;11.598;2022-10-16T14:26:22;21.70;77.80
10891;DHT22;5498;50.928;11.598;2022-10-16T14:29:28;21.80;78.50
10891;DHT22;5498;50.928;11.598;2022-10-16T14:32:32;21.60;78.80
10891;DHT22;5498;50.928;11.598;2022-10-16T14:35:36;21.60;78.20
10891;DHT22;5498;50.928;11.598;2022-10-16T14:38:43;21.60;77.80
10891;DHT22;5498;50.928;11.598;2022-10-16T14:41:55;21.60;78.30
10891;DHT22;5498;50.928;11.598;2022-10-16T14:45:01;21.70;78.30
10891;DHT22;5498;50.928;11.598;2022-10-16T14:48:05;21.90;78.50
10891;DHT22;5498;50.928;11.598;2022-10-16T14:51:14;21.60;79.20
10891;DHT22;5498;50.928;11.598;2022-10-16T14:54:18;21.60;80.70
10891;DHT22;5498;50.928;11.598;2022-10-16T14:57:22;21.60;80.70
10891;DHT22;5498;50.928;11.598;2022-10-16T15:00:27;21.90;81.60
10891;DHT22;5498;50.928;11.598;2022-10-16T15:03:29;21.50;81.30
10891;DHT22;5498;50.928;11.598;2022-10-16T15:06:31;21.50;81.60
10891;DHT22;5498;50.928;11.598;2022-10-16T15:09:33;21.50;81.70
10891;DHT22;5498;50.928;11.598;2022-10-16T15:12:35;21.50;81.80
10891;DHT22;5498;50.928;11.598;2022-10-16T15:15:42;21.50;81.70
10891;DHT22;5498;50.928;11.598;2022-10-16T15:18:44;21.50;82.20
10891;DHT22;5498;50.928;11.598;2022-10-16T15:21:47;21.50;81.90
10891;DHT22;5498;50.928;11.598;2022-10-16T15:24:49;21.50;81.60
10891;DHT22;5498;50.928;11.598;2022-10-16T15:27:51;21.50;81.40
10891;DHT22;5498;50.928;11.598;2022-10-16T15:30:56;21.40;80.90
10891;DHT22;5498;50.928;11.598;2022-10-16T15:33:58;21.40;81.30
10891;DHT22;5498;50.928;11.598;2022-10-16T15:37:04;21.40;81.80
10891;DHT22;5498;50.928;11.598;2022-10-16T15:40:08;21.30;80.70
10891;DHT22;5498;50.928;11.598;2022-10-16T15:43:10;21.30;80.40
10891;DHT22;5498;50.928;11.598;2022-10-16T15:46:14;21.50;80.30
10891;DHT22;5498;50.928;11.598;2022-10-16T15:49:17;21.30;80.10
10891;DHT22;5498;50.928;11.598;2022-10-16T15:52:19;21.20;79.40
10891;DHT22;5498;50.928;11.598;2022-10-16T15:55:21;21.10;78.80
10891;DHT22;5498;50.928;11.598;2022-10-16T15:58:23;21.10;78.30
10891;DHT22;5498;50.928;11.598;2022-10-16T16:01:26;21.10;78.40
10891;DHT22;5498;50.928;11.598;2022-10-16T16:04:30;21.00;78.80
10891;DHT22;5498;50.928;11.598;2022-10-16T16:07:32;21.00;78.70
10891;DHT22;5498;50.928;11.598;2022-10-16T16:10:35;20.80;78.50
10891;DHT22;5498;50.928;11.598;2022-10-16T16:13:37;20.80;78.30
10891;DHT22;5498;50.928;11.598;2022-10-16T16:16:41;20.80;78.80
10891;DHT22;5498;50.928;11.598;2022-10-16T16:19:43;21.00;78.90
10891;DHT22;5498;50.928;11.598;2022-10-16T16:22:45;20.80;78.70
10891;DHT22;5498;50.928;11.598;2022-10-16T16:26:02;20.70;78.90
10891;DHT22;5498;50.928;11.598;2022-10-16T16:29:06;21.10;79.70
10891;DHT22;5498;50.928;11.598;2022-10-16T16:32:10;20.90;79.90
10891;DHT22;5498;50.928;11.598;2022-10-16T16:35:12;20.50;79.70
10891;DHT22;5498;50.928;11.598;2022-10-16T16:38:14;20.40;79.80
10891;DHT22;5498;50.928;11.598;2022-10-16T16:41:17;20.30;80.30
10891;DHT22;5498;50.928;11.598;2022-10-16T16:44:20;20.30;80.90
10891;DHT22;5498;50.928;11.598;2022-10-16T16:47:23;20.20;80.90
10891;DHT22;5498;50.928;11.598;2022-10-16T16:50:25;20.10;81.10
10891;DHT22;5498;50.928;11.598;2022-10-16T16:53:27;20.50;82.00
10891;DHT22;5498;50.928;11.598;2022-10-16T16:56:29;20.20;82.30
10891;DHT22;5498;50.928;11.598;2022-10-16T16:59:31;19.90;82.40
10891;DHT22;5498;50.928;11.598;2022-10-16T17:02:35;19.80;82.80
10891;DHT22;5498;50.928;11.598;2022-10-16T17:05:37;20.20;83.50
10891;DHT22;5498;50.928;11.598;2022-10-16T17:08:39;19.70;83.50
10891;DHT22;5498;50.928;11.598;2022-10-16T17:11:41;19.60;83.20
10891;DHT22;5498;50.928;11.598;2022-10-16T17:14:45;19.60;82.80
10891;DHT22;5498;50.928;11.598;2022-10-16T17:17:48;19.50;82.90
10891;DHT22;5498;50.928;11.598;2022-10-16T17:20:50;19.40;83.50
10891;DHT22;5498;50.928;11.598;2022-10-16T17:23:52;19.30;83.90
10891;DHT22;5498;50.928;11.598;2022-10-16T17:26:54;19.30;84.30
10891;DHT22;5498;50.928;11.598;2022-10-16T17:29:57;19.20;84.40
10891;DHT22;5498;50.928;11.598;2022-10-16T17:33:01;19.60;85.40
10891;DHT22;5498;50.928;11.598;2022-10-16T17:36:03;19.60;86.00
10891;DHT22;5498;50.928;11.598;2022-10-16T17:39:07;19.10;86.10
10891;DHT22;5498;50.928;11.598;2022-10-16T17:42:16;19.20;85.60
10891;DHT22;5498;50.928;11.598;2022-10-16T17:45:26;19.00;84.30
10891;DHT22;5498;50.928;11.598;2022-10-16T17:48:30;18.90;86.30
10891;DHT22;5498;50.928;11.598;2022-10-16T17:51:33;18.90;87.10
10891;DHT22;5498;50.928;11.598;2022-10-16T17:54:36;18.80;86.70
10891;DHT22;5498;50.928;11.598;2022-10-16T17:57:39;18.80;87.10
10891;DHT22;5498;50.928;11.598;2022-10-16T18:00:41;19.10;87.40
10891;DHT22;5498;50.928;11.598;2022-10-16T18:03:48;18.80;86.60
10891;DHT22;5498;50.928;11.598;2022-10-16T18:06:54;18.70;87.80
10891;DHT22;5498;50.928;11.598;2022-10-16T18:09:56;19.10;87.10
10891;DHT22;5498;50.928;11.598;2022-10-16T18:12:58;19.00;87.60
10891;DHT22;5498;50.928;11.598;2022-10-16T18:16:03;18.60;87.30
10891;DHT22;5498;50.928;11.598;2022-10-16T18:19:09;18.50;88.20
10891;DHT22;5498;50.928;11.598;2022-10-16T18:22:11;18.80;88.80
10891;DHT22;5498;50.928;11.598;2022-10-16T18:25:13;18.40;88.10
10891;DHT22;5498;50.928;11.598;2022-10-16T18:28:16;18.40;88.00
10891;DHT22;5498;50.928;11.598;2022-10-16T18:31:19;18.70;88.20
10891;DHT22;5498;50.928;11.598;2022-10-16T18:34:23;18.40;88.80
10891;DHT22;5498;50.928;11.598;2022-10-16T18:37:27;18.30;88.50
10891;DHT22;5498;50.928;11.598;2022-10-16T18:40:29;18.20;88.30
10891;DHT22;5498;50.928;11.598;2022-10-16T18:43:34;18.10;89.00
10891;DHT22;5498;50.928;11.598;2022-10-16T18:46:38;18.10;89.70
10891;DHT22;5498;50.928;11.598;2022-10-16T18:49:42;18.00;89.00
10891;DHT22;5498;50.928;11.598;2022-10-16T18:52:46;18.00;90.00
10891;DHT22;5498;50.928;11.598;2022-10-16T18:55:52;18.30;90.20
10891;DHT22;5498;50.928;11.598;2022-10-16T18:58:54;17.90;90.10
10891;DHT22;5498;50.928;11.598;2022-10-16T19:01:59;17.80;90.20
10891;DHT22;5498;50.928;11.598;2022-10-16T19:05:07;18.10;89.20
10891;DHT22;5498;50.928;11.598;2022-10-16T19:08:11;17.70;90.10
10891;DHT22;5498;50.928;11.598;2022-10-16T19:11:16;17.80;90.00
10891;DHT22;5498;50.928;11.598;2022-10-16T19:14:20;17.50;90.30
10891;DHT22;5498;50.928;11.598;2022-10-16T19:17:24;17.40;89.70
10891;DHT22;5498;50.928;11.598;2022-10-16T19:20:28;17.40;90.10
10891;DHT22;5498;50.928;11.598;2022-10-16T19:23:30;17.40;90.20
10891;DHT22;5498;50.928;11.598;2022-10-16T19:26:33;17.30;90.40
10891;DHT22;5498;50.928;11.598;2022-10-16T19:29:36;17.70;90.80
10891;DHT22;5498;50.928;11.598;2022-10-16T19:32:38;17.30;90.60
10891;DHT22;5498;50.928;11.598;2022-10-16T19:35:42;17.20;90.50
10891;DHT22;5498;50.928;11.598;2022-10-16T19:38:45;17.30;90.60
10891;DHT22;5498;50.928;11.598;2022-10-16T19:41:48;17.10;91.30